Terminal Aerodrome Forecast
Issued by NWS Charleston, WV

Current Version | Previous Version | Graphics & Text | Print | Product List | Glossary On
Versions: 1 2 3 4 5 6 7 8 9 10 11 12 13 14 15 16 17 18 19 20 21 22 23 24 25 26 27 28 29
000
FTUS41 KRLX 261700 RRA
TAFCRW
TAF
KCRW 261743Z 2618/2718 00000KT P6SM SCT250
     FM270500 00000KT 5SM BR FEW250
     FM271000 00000KT 2SM BR FEW120
     FM271200 00000KT 1SM BR SCT001
     FM271300 00000KT 3SM BR SCT070
     FM271400 00000KT P6SM SCT070
     FM271700 VRB03KT P6SM BKN035=

USA.gov is the U.S. government's official web portal to all federal, state and local government web resources and services.